createdAt,value
2018-05-15T00:01:31.977Z,14.70
2018-05-15T00:07:37.100Z,14.40
2018-05-15T00:13:41.476Z,14.40
2018-05-15T00:19:46.016Z,14.40
2018-05-15T00:25:51.220Z,14.60
2018-05-15T00:31:56.342Z,14.70
2018-05-15T00:38:00.685Z,14.60
2018-05-15T00:44:05.810Z,14.40
2018-05-15T00:50:10.173Z,14.40
2018-05-15T00:56:14.550Z,14.30
2018-05-15T01:02:19.530Z,14.30
2018-05-15T01:08:24.302Z,14.10
2018-05-15T01:14:29.425Z,14.00
2018-05-15T01:20:33.793Z,14.00
2018-05-15T01:26:38.123Z,13.90
2018-05-15T01:32:42.520Z,13.80
2018-05-15T01:38:46.874Z,13.80
2018-05-15T01:44:51.527Z,13.80
2018-05-15T01:50:56.771Z,13.90
2018-05-15T01:57:01.130Z,13.80
2018-05-15T02:03:06.257Z,13.80
2018-05-15T02:09:10.600Z,13.80
2018-05-15T02:15:15.056Z,13.90
2018-05-15T02:21:19.549Z,13.90
2018-05-15T02:27:23.929Z,13.80
2018-05-15T02:33:29.049Z,13.50
2018-05-15T02:39:33.395Z,13.50
2018-05-15T02:45:38.503Z,13.20
2018-05-15T02:51:42.863Z,13.10
2018-05-15T02:57:48.399Z,13.30
2018-05-15T03:03:53.373Z,13.30
2018-05-15T03:09:57.745Z,13.40
2018-05-15T03:16:02.097Z,13.50
2018-05-15T03:22:06.480Z,13.50
2018-05-15T03:28:11.604Z,13.40
2018-05-15T03:34:15.965Z,13.40
2018-05-15T03:40:20.723Z,13.40
2018-05-15T03:46:25.140Z,13.40
2018-05-15T03:52:29.500Z,13.00
2018-05-15T03:58:33.848Z,12.70
2018-05-15T04:04:56.831Z,12.30
2018-05-15T04:11:01.299Z,12.30
2018-05-15T04:17:06.539Z,12.30
2018-05-15T04:23:11.636Z,12.30
2018-05-15T04:29:16.743Z,12.50
2018-05-15T04:35:22.317Z,12.50
2018-05-15T04:41:26.637Z,12.80
2018-05-15T04:47:31.165Z,13.00
2018-05-15T04:53:35.521Z,13.00
2018-05-15T04:59:40.033Z,13.00
2018-05-15T05:05:45.187Z,13.10
2018-05-15T05:11:50.818Z,13.30
2018-05-15T05:17:55.237Z,13.30
2018-05-15T05:23:59.592Z,13.50
2018-05-15T05:30:03.949Z,13.80
2018-05-15T05:36:09.287Z,14.30
2018-05-15T05:42:13.700Z,14.20
2018-05-15T05:48:18.120Z,14.50
2018-05-15T05:54:23.628Z,15.00
2018-05-15T06:00:28.164Z,15.00
2018-05-15T06:06:32.508Z,15.40
2018-05-15T06:12:37.270Z,15.60
2018-05-15T06:18:41.617Z,16.00
2018-05-15T06:24:46.746Z,16.80
2018-05-15T06:30:51.845Z,16.80
2018-05-15T06:36:57.047Z,17.30
2018-05-15T06:43:01.400Z,17.30
2018-05-15T06:49:05.952Z,17.50
2018-05-15T06:55:11.133Z,18.10
2018-05-15T07:01:16.242Z,18.20
2018-05-15T07:07:20.751Z,18.20
2018-05-15T07:13:26.243Z,18.80
2018-05-15T07:19:30.678Z,18.80
2018-05-15T07:25:35.009Z,19.00
2018-05-15T07:31:39.388Z,19.10
2018-05-15T07:37:43.753Z,19.40
2018-05-15T07:43:48.120Z,19.80
2018-05-15T07:49:53.875Z,19.90
2018-05-15T07:55:58.227Z,19.80
2018-05-15T08:02:02.620Z,20.20
2018-05-15T08:08:06.996Z,20.70
2018-05-15T08:14:11.343Z,21.00
2018-05-15T08:20:15.693Z,21.60
2018-05-15T08:26:20.135Z,21.90
2018-05-15T08:32:25.304Z,22.10
2018-05-15T08:38:29.664Z,22.10
2018-05-15T08:44:34.017Z,22.30
2018-05-15T08:50:38.381Z,22.60
2018-05-15T08:56:42.750Z,22.90
2018-05-15T09:02:47.865Z,23.40
2018-05-15T09:08:52.570Z,23.30
2018-05-15T09:14:57.269Z,23.80
2018-05-15T09:21:01.700Z,24.00
2018-05-15T09:27:06.043Z,24.20
2018-05-15T09:33:11.210Z,24.30
2018-05-15T09:39:16.337Z,24.80
2018-05-15T09:45:21.460Z,24.80
2018-05-15T09:51:25.829Z,24.10
2018-05-15T09:57:30.176Z,24.00
2018-05-15T10:03:34.733Z,23.90
2018-05-15T10:09:39.122Z,24.30
2018-05-15T10:15:44.245Z,25.10
2018-05-15T10:21:48.601Z,25.10
2018-05-15T10:27:53.053Z,25.20
2018-05-15T10:33:57.401Z,24.80
2018-05-15T10:40:01.952Z,24.80
2018-05-15T10:46:06.310Z,24.90
2018-05-15T10:52:10.653Z,25.00
2018-05-15T10:58:15.784Z,24.20
2018-05-15T11:04:20.372Z,24.20
2018-05-15T11:10:24.849Z,25.40
2018-05-15T11:16:29.293Z,24.50
2018-05-15T11:22:52.042Z,24.10
2018-05-15T11:28:56.441Z,24.50
2018-05-15T11:35:00.851Z,24.30
2018-05-15T11:41:06.849Z,23.00
2018-05-15T11:47:11.979Z,24.40
2018-05-15T11:53:16.838Z,24.40
2018-05-15T11:59:22.455Z,23.60
2018-05-15T12:05:26.850Z,23.50
2018-05-15T12:11:31.305Z,23.00
2018-05-15T12:17:35.691Z,23.10
2018-05-15T12:23:40.042Z,24.60
2018-05-15T12:29:45.432Z,24.50
2018-05-15T12:35:49.904Z,24.50
2018-05-15T12:41:55.645Z,24.30
2018-05-15T12:48:00.737Z,26.20
2018-05-15T12:54:05.178Z,26.10
2018-05-15T13:00:09.569Z,26.50
2018-05-15T13:06:13.923Z,25.70
2018-05-15T13:12:18.475Z,26.00
2018-05-15T13:18:23.861Z,28.60
2018-05-15T13:24:28.249Z,28.50
2018-05-15T13:30:32.577Z,28.00
2018-05-15T13:36:37.733Z,25.90
2018-05-15T13:42:42.086Z,25.80
2018-05-15T13:48:46.466Z,24.90
2018-05-15T13:54:50.857Z,24.20
2018-05-15T14:00:55.336Z,23.90
2018-05-15T14:06:59.748Z,23.90
2018-05-15T14:13:04.870Z,25.40
2018-05-15T14:19:09.250Z,25.40
2018-05-15T14:25:13.824Z,25.70
2018-05-15T14:31:18.140Z,25.10
2018-05-15T14:37:23.298Z,25.10
2018-05-15T14:43:27.770Z,25.10
2018-05-15T14:49:32.249Z,25.10
2018-05-15T14:55:36.674Z,24.80
2018-05-15T15:01:42.382Z,24.00
2018-05-15T15:07:48.197Z,23.70
2018-05-15T15:13:54.071Z,22.90
2018-05-15T15:19:59.285Z,22.80
2018-05-15T15:26:04.478Z,22.90
2018-05-15T15:32:08.913Z,22.90
2018-05-15T15:38:13.303Z,22.90
2018-05-15T15:44:17.655Z,22.70
2018-05-15T15:50:22.069Z,22.70
2018-05-15T15:56:26.424Z,22.60
2018-05-15T16:02:30.782Z,22.10
2018-05-15T16:08:35.174Z,21.60
2018-05-15T16:14:39.537Z,21.50
2018-05-15T16:20:43.895Z,21.40
2018-05-15T16:26:48.201Z,21.80
2018-05-15T16:32:53.394Z,22.50
2018-05-15T16:38:57.748Z,23.80
2018-05-15T16:45:02.106Z,25.60
2018-05-15T16:51:06.473Z,27.00
2018-05-15T16:57:11.601Z,27.60
2018-05-15T17:03:15.948Z,27.60
2018-05-15T17:09:20.636Z,25.40
2018-05-15T17:15:24.989Z,23.50
2018-05-15T17:21:30.142Z,21.80
2018-05-15T17:27:34.720Z,21.70
2018-05-15T17:33:39.121Z,21.70
2018-05-15T17:39:43.738Z,21.40
2018-05-15T17:45:48.243Z,21.00
2018-05-15T17:51:54.085Z,20.60
2018-05-15T17:57:59.565Z,19.60
2018-05-15T18:04:03.901Z,19.50
2018-05-15T18:10:08.267Z,19.10
2018-05-15T18:16:13.386Z,18.50
2018-05-15T18:22:17.697Z,18.50
2018-05-15T18:28:23.023Z,17.50
2018-05-15T18:34:28.140Z,16.70
2018-05-15T18:40:32.601Z,16.60
2018-05-15T18:46:37.303Z,16.10
2018-05-15T18:52:41.629Z,15.70
2018-05-15T18:58:45.986Z,15.50
2018-05-15T19:04:50.404Z,15.50
2018-05-15T19:10:54.776Z,15.50
2018-05-15T19:16:59.125Z,15.50
2018-05-15T19:23:03.664Z,15.40
2018-05-15T19:29:07.997Z,15.30
2018-05-15T19:35:18.603Z,15.00
2018-05-15T19:41:23.049Z,15.00
2018-05-15T19:47:27.349Z,14.90
2018-05-15T19:53:33.221Z,14.80
2018-05-15T19:59:37.550Z,14.80
2018-05-15T20:05:42.711Z,14.80
2018-05-15T20:11:47.073Z,14.80
2018-05-15T20:17:51.462Z,14.80
2018-05-15T20:23:55.984Z,14.80
2018-05-15T20:30:00.344Z,14.60
2018-05-15T20:36:05.470Z,14.60
2018-05-15T20:42:10.488Z,14.60
2018-05-15T20:48:14.762Z,14.70
2018-05-15T20:54:19.126Z,14.60
2018-05-15T21:00:23.798Z,14.60
2018-05-15T21:06:28.133Z,14.60
2018-05-15T21:12:33.276Z,14.60
2018-05-15T21:18:37.620Z,14.60
2018-05-15T21:24:41.996Z,14.50
2018-05-15T21:30:46.341Z,14.50
2018-05-15T21:36:50.865Z,14.50
2018-05-15T21:42:55.290Z,14.40
2018-05-15T21:48:59.649Z,14.40
2018-05-15T21:55:04.004Z,14.40
2018-05-15T22:01:08.372Z,14.40
2018-05-15T22:07:12.735Z,14.40
2018-05-15T22:13:35.029Z,14.30
2018-05-15T22:20:03.243Z,14.30
2018-05-15T22:26:13.590Z,14.10
2018-05-15T22:32:17.946Z,14.00
2018-05-15T22:38:22.849Z,14.00
2018-05-15T22:44:27.211Z,13.90
2018-05-15T22:50:32.014Z,13.90
2018-05-15T22:56:36.387Z,13.90
2018-05-15T23:02:40.734Z,13.90
2018-05-15T23:08:45.080Z,13.90
2018-05-15T23:14:49.564Z,13.80
2018-05-15T23:20:54.394Z,13.70
2018-05-15T23:26:59.588Z,13.80
2018-05-15T23:33:03.950Z,13.70
2018-05-15T23:39:08.316Z,13.80
2018-05-15T23:45:12.668Z,13.70
2018-05-15T23:51:17.041Z,13.70
2018-05-15T23:57:22.203Z,13.40
